Time;durP1;ratioP1;P1;durP2;ratioP2;P2;SDS_P1;SDS_P2;PMS_P1;PMS_P2;Temp;Humidity;BMP_temperature;BMP_pressure;BME280_temperature;BME280_humidity;BME280_pressure;Samples;Min_cycle;Max_cycle;Signal;HPM_P1;HPM_P2
2021/05/06 00:02:28;;;;;;;4.90;2.43;;;8.40;99.90;;;;;;5084866;28;20304;-68
2021/05/06 00:05:15;;;;;;;3.33;2.30;;;8.30;99.90;;;;;;5084788;28;20208;-68
2021/05/06 00:29:59;;;;;;;4.30;1.90;;;8.10;99.90;;;;;;5078976;28;20193;-67
2021/05/06 00:32:27;;;;;;;3.53;2.03;;;8.10;99.90;;;;;;5089972;28;20197;-68
2021/05/06 00:34:54;;;;;;;4.10;1.70;;;8.00;99.90;;;;;;5091769;28;20389;-68
2021/05/06 00:37:21;;;;;;;6.97;1.80;;;8.00;99.90;;;;;;5076001;28;20297;-67
2021/05/06 00:39:51;;;;;;;3.23;1.70;;;8.00;99.90;;;;;;5081705;28;20209;-68
2021/05/06 00:59:23;;;;;;;2.03;1.43;;;7.80;99.90;;;;;;5084146;28;20652;-68
2021/05/06 01:02:12;;;;;;;2.33;1.20;;;7.80;99.90;;;;;;5083450;28;20272;-69
2021/05/06 01:04:44;;;;;;;3.73;1.93;;;7.80;99.90;;;;;;5092250;28;20204;-68
2021/05/06 01:10:08;;;;;;;7.03;2.00;;;7.80;99.90;;;;;;5063780;28;20674;-68
2021/05/06 01:12:35;;;;;;;2.87;2.10;;;7.70;99.90;;;;;;5079002;28;20198;-68
2021/05/06 01:15:01;;;;;;;5.00;2.07;;;7.70;99.90;;;;;;5083910;28;20375;-68
2021/05/06 01:17:28;;;;;;;4.97;2.23;;;7.70;99.90;;;;;;5076860;28;20198;-68
2021/05/06 01:19:54;;;;;;;7.40;1.97;;;7.70;99.90;;;;;;5079983;28;20240;-68
2021/05/06 01:22:21;;;;;;;3.60;2.07;;;7.70;99.90;;;;;;5085289;28;20218;-68
2021/05/06 01:24:52;;;;;;;3.87;2.00;;;7.70;99.90;;;;;;5086279;28;20197;-68
2021/05/06 01:27:22;;;;;;;4.77;2.40;;;7.70;99.90;;;;;;5081988;28;20280;-68
2021/05/06 01:29:54;;;;;;;3.13;2.10;;;7.60;99.90;;;;;;5074307;28;20204;-69
2021/05/06 01:32:23;;;;;;;5.00;1.90;;;7.60;99.90;;;;;;5087871;28;20558;-69
2021/05/06 01:34:54;;;;;;;1.60;1.50;;;7.60;99.90;;;;;;5083148;28;20236;-69
2021/05/06 01:37:27;;;;;;;3.70;2.07;;;7.50;99.90;;;;;;5086755;28;20213;-69
2021/05/06 01:42:39;;;;;;;5.77;1.80;;;7.50;99.90;;;;;;5075054;28;20221;-69
2021/05/06 01:45:45;;;;;;;3.80;1.67;;;7.50;99.90;;;;;;5083084;28;20658;-69
2021/05/06 01:48:21;;;;;;;4.40;1.60;;;7.50;99.90;;;;;;5083326;28;20474;-69
2021/05/06 01:51:12;;;;;;;1.87;1.40;;;7.50;99.90;;;;;;5072715;28;20283;-68
2021/05/06 01:59:09;;;;;;;4.10;1.23;;;7.50;99.90;;;;;;5037837;28;20731;-69
2021/05/06 02:01:35;;;;;;;3.17;1.10;;;7.50;99.90;;;;;;5086922;28;20204;-69
2021/05/06 02:04:01;;;;;;;2.57;1.27;;;7.50;99.90;;;;;;5079301;28;20221;-68
2021/05/06 02:06:28;;;;;;;2.53;1.30;;;7.50;99.90;;;;;;5078412;28;20209;-70
2021/05/06 02:08:55;;;;;;;2.27;1.10;;;7.50;99.90;;;;;;5081951;28;20296;-68
2021/05/06 02:11:23;;;;;;;2.83;1.03;;;7.50;99.90;;;;;;5078569;28;20296;-68
2021/05/06 02:13:51;;;;;;;3.90;1.20;;;7.50;99.90;;;;;;5074902;28;20312;-68
2021/05/06 02:16:20;;;;;;;4.43;1.40;;;7.50;99.90;;;;;;5081811;28;20657;-68
2021/05/06 02:18:46;;;;;;;1.37;1.03;;;7.50;99.90;;;;;;5083911;28;20239;-68
2021/05/06 02:21:16;;;;;;;4.43;1.07;;;7.50;99.90;;;;;;5076448;28;20606;-68
2021/05/06 02:23:43;;;;;;;2.43;1.17;;;7.50;99.90;;;;;;5079615;28;20220;-69
2021/05/06 02:26:11;;;;;;;3.10;1.10;;;7.50;99.90;;;;;;5076441;28;20204;-69
2021/05/06 02:28:37;;;;;;;3.87;1.23;;;7.50;99.90;;;;;;5089695;28;20219;-69
2021/05/06 02:31:03;;;;;;;3.57;1.17;;;7.50;99.90;;;;;;5082085;28;20238;-68
2021/05/06 02:33:30;;;;;;;3.73;1.10;;;7.50;99.90;;;;;;5079784;28;20289;-68
2021/05/06 02:35:56;;;;;;;4.10;1.20;;;7.40;99.90;;;;;;5085926;28;20209;-69
2021/05/06 02:38:22;;;;;;;5.33;1.40;;;7.40;99.90;;;;;;5080555;28;20228;-68
2021/05/06 02:40:49;;;;;;;2.80;1.27;;;7.30;99.90;;;;;;5079925;28;20214;-69
2021/05/06 02:43:16;;;;;;;3.17;0.93;;;7.30;99.90;;;;;;5078643;28;20213;-69
2021/05/06 02:45:42;;;;;;;1.90;1.27;;;7.30;99.90;;;;;;5088040;28;20212;-68
2021/05/06 02:48:09;;;;;;;1.57;1.10;;;7.30;99.90;;;;;;5088032;28;20634;-68
2021/05/06 02:50:35;;;;;;;1.93;1.40;;;7.20;99.90;;;;;;5081108;28;20201;-68
2021/05/06 02:53:03;;;;;;;3.20;1.27;;;7.20;99.90;;;;;;5077231;28;20208;-69
2021/05/06 02:55:39;;;;;;;1.50;1.07;;;7.20;99.90;;;;;;5083791;28;20255;-68
2021/05/06 02:58:09;;;;;;;4.30;1.87;;;7.20;99.90;;;;;;5084360;28;20607;-69
2021/05/06 03:03:21;;;;;;;4.57;1.83;;;7.10;99.90;;;;;;5078294;28;20216;-68
2021/05/06 03:05:52;;;;;;;3.23;1.30;;;7.10;99.90;;;;;;5086686;28;20196;-68
2021/05/06 03:08:21;;;;;;;2.87;1.20;;;7.20;99.90;;;;;;5096568;28;20657;-68
2021/05/06 03:11:21;;;;;;;3.80;1.60;;;7.10;99.90;;;;;;5087860;28;20215;-69
2021/05/06 03:25:00;;;;;;;5.67;1.70;;;7.10;99.90;;;;;;5012558;28;20203;-70
2021/05/06 03:27:30;;;;;;;4.13;1.40;;;7.10;99.90;;;;;;5066886;28;20307;-69
2021/05/06 03:30:11;;;;;;;7.47;1.70;;;7.10;99.90;;;;;;5084338;28;20300;-68
2021/05/06 03:32:49;;;;;;;4.83;1.20;;;7.10;99.90;;;;;;5088754;28;20242;-68
2021/05/06 03:35:28;;;;;;;5.87;1.50;;;7.10;99.90;;;;;;5079757;28;20299;-69
2021/05/06 03:43:37;;;;;;;2.57;1.20;;;7.20;99.90;;;;;;5077694;28;20270;-68
2021/05/06 04:16:43;;;;;;;3.57;1.27;;;7.60;99.90;;;;;;5039046;28;20576;-69
2021/05/06 04:19:15;;;;;;;3.50;1.57;;;7.60;99.90;;;;;;5087652;28;20204;-69
2021/05/06 04:22:08;;;;;;;2.83;1.43;;;7.60;99.90;;;;;;5081721;28;20527;-69
2021/05/06 04:27:22;;;;;;;4.27;1.50;;;7.60;99.90;;;;;;5086562;28;20196;-69
2021/05/06 04:30:16;;;;;;;2.30;1.50;;;7.50;99.90;;;;;;5086945;28;20201;-68
2021/05/06 04:35:40;;;;;;;3.70;1.67;;;7.60;99.90;;;;;;5086910;28;20200;-69
2021/05/06 04:38:10;;;;;;;4.80;1.83;;;7.60;99.90;;;;;;5079513;28;20207;-70
2021/05/06 04:40:56;;;;;;;2.83;1.53;;;7.60;99.90;;;;;;5076832;28;20237;-69
2021/05/06 04:46:31;;;;;;;4.90;1.50;;;7.70;99.90;;;;;;5037405;28;20209;-69
2021/05/06 04:54:31;;;;;;;5.27;1.63;;;7.80;99.90;;;;;;5087642;28;20285;-68
2021/05/06 04:57:19;;;;;;;4.90;1.50;;;7.80;99.90;;;;;;5081525;28;20656;-69
2021/05/06 05:05:13;;;;;;;3.73;1.57;;;7.90;99.90;;;;;;5076581;28;20562;-68
2021/05/06 05:07:44;;;;;;;3.60;1.50;;;7.90;99.90;;;;;;5082409;28;20576;-68
2021/05/06 05:10:21;;;;;;;8.20;2.67;;;7.90;99.90;;;;;;5088985;28;20201;-69
2021/05/06 05:13:09;;;;;;;5.60;1.93;;;8.00;99.90;;;;;;5077964;28;20305;-69
2021/05/06 05:18:29;;;;;;;3.67;1.70;;;8.10;99.90;;;;;;5074428;28;20270;-69
2021/05/06 05:23:51;;;;;;;7.77;1.83;;;8.10;99.90;;;;;;5063551;28;20233;-73
2021/05/06 05:26:19;;;;;;;5.37;1.50;;;8.20;99.90;;;;;;5076659;28;20208;-71
2021/05/06 05:28:46;;;;;;;3.40;1.50;;;8.20;99.90;;;;;;5080059;28;20277;-72
2021/05/06 05:31:12;;;;;;;5.37;1.70;;;8.20;99.90;;;;;;5078936;28;20304;-73
2021/05/06 05:33:46;;;;;;;4.20;1.97;;;8.20;99.90;;;;;;5079654;28;20235;-75
2021/05/06 05:36:16;;;;;;;2.73;1.30;;;8.20;99.90;;;;;;5085279;28;21265;-73
2021/05/06 05:38:58;;;;;;;3.97;1.50;;;8.30;99.90;;;;;;5091695;28;20429;-73
2021/05/06 05:41:57;;;;;;;4.73;1.60;;;8.40;99.90;;;;;;5079413;28;20274;-73
2021/05/06 05:55:36;;;;;;;5.67;1.60;;;8.60;99.90;;;;;;5074476;28;20204;-73
2021/05/06 05:58:03;;;;;;;4.03;2.00;;;8.70;99.90;;;;;;5077073;28;20278;-73
2021/05/06 06:00:29;;;;;;;6.97;1.90;;;8.70;99.90;;;;;;5080428;28;20198;-72
2021/05/06 06:02:56;;;;;;;3.50;1.40;;;8.70;99.90;;;;;;5086237;28;20347;-73
2021/05/06 06:05:23;;;;;;;4.03;1.60;;;8.60;99.30;;;;;;5093271;28;20316;-72
2021/05/06 06:07:50;;;;;;;6.93;1.80;;;8.70;99.50;;;;;;5072228;28;20274;-72
2021/05/06 06:10:16;;;;;;;2.97;1.50;;;8.70;99.60;;;;;;5075607;28;20222;-70
2021/05/06 06:12:43;;;;;;;5.03;1.93;;;8.70;98.60;;;;;;5082431;28;20217;-72
2021/05/06 06:15:14;;;;;;;5.27;1.60;;;8.80;97.90;;;;;;5082425;28;20229;-73
2021/05/06 06:17:42;;;;;;;3.13;1.47;;;8.80;97.80;;;;;;5091472;28;20676;-74
2021/05/06 06:20:11;;;;;;;6.83;2.03;;;8.90;97.80;;;;;;5090848;28;20256;-71
2021/05/06 06:22:37;;;;;;;5.77;1.90;;;9.00;97.30;;;;;;5086202;28;20224;-73
2021/05/06 06:25:04;;;;;;;6.37;2.07;;;9.00;96.10;;;;;;5077601;28;20209;-75
2021/05/06 06:27:31;;;;;;;4.27;1.80;;;9.10;95.40;;;;;;5083267;28;20338;-73
2021/05/06 06:29:59;;;;;;;5.77;1.80;;;9.10;95.00;;;;;;5074930;28;20202;-76
2021/05/06 06:32:27;;;;;;;3.50;1.80;;;9.20;94.60;;;;;;5080638;28;20258;-74
2021/05/06 06:34:53;;;;;;;7.03;2.03;;;9.30;93.80;;;;;;5082491;28;20658;-76
2021/05/06 06:37:20;;;;;;;6.77;1.70;;;9.30;93.80;;;;;;5091431;28;20307;-70
2021/05/06 06:39:46;;;;;;;5.80;1.80;;;9.40;94.00;;;;;;5088185;28;20286;-71
2021/05/06 06:42:13;;;;;;;5.43;2.00;;;9.40;93.50;;;;;;5090261;28;20248;-74
2021/05/06 06:44:39;;;;;;;6.73;1.57;;;9.60;93.60;;;;;;5077290;28;20211;-72
2021/05/06 06:47:08;;;;;;;2.80;1.60;;;9.60;92.80;;;;;;5087113;28;20292;-76
2021/05/06 06:49:36;;;;;;;4.87;1.80;;;9.60;92.60;;;;;;5072089;28;20236;-74
2021/05/06 06:52:04;;;;;;;3.10;2.00;;;9.70;92.40;;;;;;5084131;28;20244;-74
2021/05/06 06:54:31;;;;;;;5.80;1.80;;;9.80;92.40;;;;;;5075734;28;20308;-74
2021/05/06 06:56:57;;;;;;;4.80;2.07;;;9.80;91.50;;;;;;5078546;28;20625;-74
2021/05/06 06:59:24;;;;;;;4.13;1.50;;;9.90;91.50;;;;;;5073643;28;20213;-73
2021/05/06 07:01:50;;;;;;;4.60;1.57;;;9.90;90.60;;;;;;5078954;28;20241;-76
2021/05/06 07:04:17;;;;;;;3.97;1.83;;;9.90;90.30;;;;;;5084613;28;20310;-72
2021/05/06 07:06:44;;;;;;;5.17;1.97;;;9.90;90.00;;;;;;5087648;28;20327;-74
2021/05/06 07:09:11;;;;;;;3.60;1.97;;;10.00;89.30;;;;;;5085331;28;20201;-75
2021/05/06 07:11:39;;;;;;;6.83;2.00;;;10.10;89.40;;;;;;5084484;28;20204;-75
2021/05/06 07:14:06;;;;;;;3.73;2.23;;;10.20;89.50;;;;;;5081450;28;20261;-75
2021/05/06 07:16:32;;;;;;;4.10;1.67;;;10.20;87.00;;;;;;5079756;28;20217;-75
2021/05/06 07:18:59;;;;;;;5.50;1.80;;;10.30;85.10;;;;;;5086392;28;20205;-77
2021/05/06 07:21:26;;;;;;;5.90;1.80;;;10.30;83.30;;;;;;5086561;28;20244;-75
2021/05/06 07:23:54;;;;;;;5.47;1.60;;;10.40;82.70;;;;;;5083956;28;20743;-73
2021/05/06 07:26:22;;;;;;;5.47;1.70;;;10.40;83.10;;;;;;5078458;28;20275;-74
2021/05/06 07:28:50;;;;;;;5.77;2.00;;;10.50;82.80;;;;;;5079981;28;20205;-72
2021/05/06 07:31:17;;;;;;;2.60;1.57;;;10.50;80.20;;;;;;5085478;28;20224;-73
2021/05/06 07:33:45;;;;;;;5.10;1.50;;;10.50;78.60;;;;;;5084025;28;20328;-73
2021/05/06 07:36:12;;;;;;;3.30;1.60;;;10.60;75.60;;;;;;5079782;28;20201;-72
2021/05/06 07:38:38;;;;;;;2.00;1.30;;;10.60;74.70;;;;;;5083199;28;20201;-71
2021/05/06 07:41:07;;;;;;;4.30;1.47;;;10.60;73.10;;;;;;5077012;28;20240;-73
2021/05/06 07:43:33;;;;;;;4.77;1.70;;;10.60;71.90;;;;;;5068506;28;20236;-70
2021/05/06 07:46:00;;;;;;;8.57;1.80;;;10.60;71.70;;;;;;5077771;28;20205;-70
2021/05/06 07:48:27;;;;;;;2.47;1.57;;;10.60;71.10;;;;;;5073155;28;20543;-69
2021/05/06 07:50:54;;;;;;;5.07;1.73;;;10.70;70.50;;;;;;5075009;28;20948;-70
2021/05/06 07:53:24;;;;;;;5.80;1.63;;;10.70;70.60;;;;;;5087548;28;20200;-70
2021/05/06 07:55:52;;;;;;;6.73;2.27;;;10.80;71.50;;;;;;5084579;28;20201;-70
2021/05/06 07:58:19;;;;;;;6.33;1.90;;;10.80;71.70;;;;;;5077755;28;20221;-70
2021/05/06 08:00:46;;;;;;;7.20;2.33;;;11.00;71.40;;;;;;5077053;28;20206;-69
2021/05/06 08:03:12;;;;;;;5.20;1.80;;;11.00;70.60;;;;;;5072217;28;20229;-69
2021/05/06 08:05:39;;;;;;;7.03;1.53;;;11.10;68.10;;;;;;5084564;28;20323;-70
2021/05/06 08:08:06;;;;;;;5.77;1.70;;;10.90;68.30;;;;;;5079022;28;20671;-70
2021/05/06 08:10:33;;;;;;;4.43;1.43;;;11.10;69.30;;;;;;5080683;28;20235;-71
2021/05/06 08:13:02;;;;;;;4.53;1.70;;;11.20;69.50;;;;;;5083489;28;20664;-70
2021/05/06 08:15:30;;;;;;;4.33;1.70;;;11.40;69.30;;;;;;5078851;28;20213;-71
2021/05/06 08:17:56;;;;;;;4.57;1.47;;;11.60;67.70;;;;;;5079797;28;20685;-70
2021/05/06 08:20:23;;;;;;;3.03;1.50;;;11.60;64.70;;;;;;5083082;28;20201;-71
2021/05/06 08:22:50;;;;;;;3.93;1.93;;;11.70;64.10;;;;;;5080030;28;20247;-71
2021/05/06 08:25:19;;;;;;;3.57;1.70;;;11.80;64.40;;;;;;5084187;28;20196;-70
2021/05/06 08:27:45;;;;;;;4.63;1.80;;;11.80;64.90;;;;;;5085589;28;20653;-70
2021/05/06 08:30:14;;;;;;;3.20;1.37;;;11.90;64.10;;;;;;5087601;28;20208;-71
2021/05/06 08:32:42;;;;;;;5.00;1.67;;;12.00;63.80;;;;;;5082963;28;20297;-71
2021/05/06 08:35:10;;;;;;;4.77;1.80;;;12.10;62.90;;;;;;5082731;28;20264;-71
2021/05/06 08:37:37;;;;;;;3.37;1.70;;;12.30;62.50;;;;;;5083986;28;20570;-70
2021/05/06 08:40:05;;;;;;;4.63;2.20;;;12.40;62.20;;;;;;5088223;28;20243;-72
2021/05/06 08:42:33;;;;;;;3.77;1.90;;;12.50;62.40;;;;;;5082058;28;20203;-71
2021/05/06 08:45:01;;;;;;;6.50;1.77;;;12.60;62.00;;;;;;5087216;28;20200;-71
2021/05/06 08:47:28;;;;;;;2.77;1.20;;;12.80;61.00;;;;;;5086826;28;20205;-71
2021/05/06 08:49:55;;;;;;;8.00;1.70;;;12.90;60.10;;;;;;5093927;28;20773;-71
2021/05/06 08:52:22;;;;;;;5.70;1.70;;;13.10;59.70;;;;;;5078156;28;20203;-71
2021/05/06 08:54:49;;;;;;;6.63;1.63;;;13.20;59.10;;;;;;5083440;28;20213;-70
2021/05/06 08:57:16;;;;;;;3.53;1.60;;;13.30;59.00;;;;;;5081102;28;20251;-71
2021/05/06 08:59:42;;;;;;;4.53;1.70;;;13.50;58.00;;;;;;5079002;28;20285;-71
2021/05/06 09:02:11;;;;;;;6.73;1.60;;;13.50;56.60;;;;;;5073764;28;20668;-70
2021/05/06 09:04:38;;;;;;;4.33;1.53;;;13.50;55.70;;;;;;5069361;28;20683;-70
2021/05/06 09:07:08;;;;;;;4.80;1.60;;;13.40;55.10;;;;;;5080412;28;20228;-73
2021/05/06 09:09:34;;;;;;;4.97;1.30;;;13.50;55.10;;;;;;5085669;28;20208;-71
2021/05/06 09:12:03;;;;;;;3.43;1.40;;;13.50;54.20;;;;;;5086021;28;20225;-71
2021/05/06 09:14:37;;;;;;;7.83;1.73;;;13.60;53.40;;;;;;5081069;28;20216;-71
2021/05/06 09:17:04;;;;;;;3.03;1.50;;;13.60;53.20;;;;;;5081306;28;20295;-71
2021/05/06 09:19:30;;;;;;;6.10;1.40;;;13.70;53.90;;;;;;5081302;28;20264;-71
2021/05/06 09:21:57;;;;;;;1.57;1.10;;;13.80;53.20;;;;;;5083464;28;20683;-71
2021/05/06 09:24:27;;;;;;;2.10;1.60;;;14.00;52.70;;;;;;5077502;28;20304;-72
2021/05/06 09:26:55;;;;;;;2.23;1.50;;;14.10;52.10;;;;;;5085493;28;20276;-72
2021/05/06 09:29:35;;;;;;;4.60;1.37;;;14.10;51.50;;;;;;5083740;28;20685;-71
2021/05/06 09:32:15;;;;;;;3.27;1.50;;;14.20;51.90;;;;;;5084532;28;20651;-71
2021/05/06 09:34:43;;;;;;;6.00;1.87;;;14.40;51.30;;;;;;5085986;28;20811;-71
2021/05/06 09:37:10;;;;;;;7.00;1.53;;;14.50;50.70;;;;;;5073081;28;20296;-73
2021/05/06 09:39:40;;;;;;;3.80;1.80;;;14.70;51.20;;;;;;5075901;28;20295;-74
2021/05/06 09:42:11;;;;;;;4.00;1.50;;;14.80;51.00;;;;;;5061915;28;20245;-73
2021/05/06 09:44:51;;;;;;;2.50;1.97;;;15.00;51.40;;;;;;5074154;28;20256;-70
2021/05/06 09:47:18;;;;;;;2.27;1.13;;;15.30;50.50;;;;;;5074346;28;20292;-70
2021/05/06 09:49:44;;;;;;;3.53;1.60;;;15.50;49.20;;;;;;5074895;28;20556;-72
2021/05/06 09:52:11;;;;;;;3.80;1.50;;;15.50;49.20;;;;;;5076137;28;20213;-71
2021/05/06 09:54:47;;;;;;;2.57;1.67;;;15.60;48.90;;;;;;5074896;28;20629;-72
2021/05/06 09:57:24;;;;;;;2.53;1.30;;;15.60;48.20;;;;;;5074231;28;20227;-71
2021/05/06 09:59:50;;;;;;;4.37;1.30;;;15.50;48.20;;;;;;5078956;28;20209;-72
2021/05/06 10:02:17;;;;;;;2.20;1.37;;;15.50;48.30;;;;;;5073034;28;20206;-72
2021/05/06 10:04:46;;;;;;;4.60;1.87;;;15.60;47.90;;;;;;5074441;28;20366;-72
2021/05/06 10:07:15;;;;;;;4.10;1.77;;;15.50;48.00;;;;;;5075523;28;20236;-73
2021/05/06 10:09:54;;;;;;;4.40;1.30;;;15.40;48.50;;;;;;5066367;28;20258;-73
2021/05/06 10:12:21;;;;;;;3.13;1.27;;;15.50;48.20;;;;;;5072851;28;20233;-73
2021/05/06 10:14:48;;;;;;;3.83;1.80;;;15.50;47.80;;;;;;5072416;28;20217;-72
2021/05/06 10:17:15;;;;;;;3.70;1.53;;;15.50;47.80;;;;;;5071024;28;20212;-72
2021/05/06 10:19:42;;;;;;;2.83;1.60;;;15.60;47.10;;;;;;5074995;28;20258;-71
2021/05/06 10:22:11;;;;;;;6.87;1.37;;;15.60;46.70;;;;;;5083666;28;20212;-72
2021/05/06 10:24:39;;;;;;;1.97;1.40;;;15.70;46.80;;;;;;5075641;28;20225;-71
2021/05/06 10:27:09;;;;;;;2.57;1.57;;;15.90;46.30;;;;;;5075027;28;20205;-74
2021/05/06 10:29:36;;;;;;;5.30;1.67;;;16.00;46.00;;;;;;5074630;28;20205;-70
2021/05/06 10:32:03;;;;;;;2.57;1.00;;;16.20;45.20;;;;;;5074671;28;20240;-72
2021/05/06 10:34:33;;;;;;;4.80;1.47;;;16.40;45.30;;;;;;5071991;28;20316;-72
2021/05/06 10:37:01;;;;;;;4.40;1.73;;;16.50;45.10;;;;;;5074851;28;20638;-71
2021/05/06 10:39:36;;;;;;;5.30;1.50;;;16.60;44.60;;;;;;5074737;28;20690;-72
2021/05/06 10:42:30;;;;;;;4.77;1.70;;;16.60;44.00;;;;;;5073774;28;20371;-73
2021/05/06 10:44:58;;;;;;;2.53;1.37;;;16.80;44.40;;;;;;5073841;28;20201;-72
2021/05/06 10:47:52;;;;;;;6.80;1.90;;;16.80;43.30;;;;;;5073876;28;20257;-72
2021/05/06 10:50:21;;;;;;;3.20;1.30;;;16.60;43.40;;;;;;5073877;28;20654;-71
2021/05/06 10:52:50;;;;;;;3.20;1.50;;;16.60;43.10;;;;;;5073762;28;20311;-72
2021/05/06 10:55:43;;;;;;;3.73;1.40;;;16.60;42.70;;;;;;5073127;28;20646;-73
2021/05/06 10:58:35;;;;;;;3.83;1.47;;;16.50;42.70;;;;;;5065271;28;20704;-73
2021/05/06 11:01:23;;;;;;;3.20;1.33;;;16.50;42.50;;;;;;5073444;28;20281;-73
2021/05/06 11:04:04;;;;;;;2.67;1.70;;;16.50;42.50;;;;;;5072537;28;20220;-73
2021/05/06 11:06:43;;;;;;;2.97;1.57;;;16.80;42.60;;;;;;5078765;28;20209;-69
2021/05/06 11:09:56;;;;;;;1.60;1.00;;;17.00;42.00;;;;;;5071293;28;20284;-73
2021/05/06 11:12:28;;;;;;;4.17;1.50;;;17.30;41.50;;;;;;5075075;28;20658;-73
2021/05/06 11:15:35;;;;;;;5.07;1.30;;;17.40;40.80;;;;;;5074528;28;20316;-73
2021/05/06 11:18:03;;;;;;;2.93;1.37;;;17.50;40.10;;;;;;5075016;28;20236;-73
2021/05/06 11:20:51;;;;;;;4.13;1.33;;;17.60;39.80;;;;;;5074832;28;20248;-73
2021/05/06 11:23:29;;;;;;;4.00;1.40;;;17.80;39.60;;;;;;5073652;28;20712;-72
2021/05/06 11:26:22;;;;;;;3.77;1.13;;;17.90;39.40;;;;;;5075863;28;20216;-73
2021/05/06 11:28:50;;;;;;;4.25;1.60;;;18.20;39.10;;;;;;5057829;28;20289;-75
2021/05/06 11:31:48;;;;;;;4.70;1.52;;;18.40;38.00;;;;;;5072044;28;20251;-72
2021/05/06 11:34:40;;;;;;;2.78;1.23;;;18.50;37.90;;;;;;5074900;28;20714;-72
2021/05/06 11:37:11;;;;;;;3.10;1.30;;;18.40;37.70;;;;;;5072206;28;20205;-73
2021/05/06 11:39:58;;;;;;;4.95;1.88;;;18.40;38.30;;;;;;5077272;28;20253;-74
2021/05/06 11:42:26;;;;;;;5.93;1.83;;;18.40;38.50;;;;;;5078673;28;20194;-73
2021/05/06 11:45:19;;;;;;;1.77;1.30;;;18.30;38.60;;;;;;5076156;28;20296;-73
2021/05/06 11:47:47;;;;;;;1.77;1.30;;;18.30;39.00;;;;;;5076335;28;20209;-71
2021/05/06 11:50:16;;;;;;;2.13;1.20;;;18.20;39.10;;;;;;5067032;28;20554;-72
2021/05/06 11:52:42;;;;;;;4.37;1.87;;;18.30;38.90;;;;;;5076287;28;20604;-71
2021/05/06 11:55:09;;;;;;;3.20;1.42;;;18.30;38.40;;;;;;5075981;28;20215;-71
2021/05/06 11:57:36;;;;;;;3.70;1.40;;;18.10;38.40;;;;;;5063964;28;20734;-70
2021/05/06 12:00:03;;;;;;;1.77;1.30;;;18.20;38.10;;;;;;5077930;28;20232;-72
2021/05/06 12:02:30;;;;;;;5.13;1.87;;;18.30;37.80;;;;;;5090881;28;20202;-69
2021/05/06 12:04:57;;;;;;;3.22;1.50;;;18.30;38.30;;;;;;5076042;28;20348;-69
2021/05/06 12:07:23;;;;;;;2.83;1.67;;;18.30;38.20;;;;;;5077109;28;20205;-72
2021/05/06 12:09:50;;;;;;;2.70;1.23;;;18.10;38.30;;;;;;5077513;28;20206;-70
2021/05/06 12:12:24;;;;;;;5.67;1.40;;;17.90;38.10;;;;;;5075979;28;20312;-74
2021/05/06 12:14:50;;;;;;;2.28;1.55;;;17.90;39.00;;;;;;5075549;28;20705;-72
2021/05/06 12:17:19;;;;;;;2.60;1.40;;;17.80;38.30;;;;;;5077642;28;20679;-76
2021/05/06 12:19:48;;;;;;;2.47;1.30;;;17.80;37.50;;;;;;5076642;28;20212;-71
2021/05/06 12:22:16;;;;;;;4.83;1.60;;;17.80;37.30;;;;;;5077488;28;20262;-72
2021/05/06 12:24:45;;;;;;;2.85;1.40;;;18.00;37.30;;;;;;5076723;28;20255;-70
2021/05/06 12:27:19;;;;;;;2.47;1.40;;;18.10;36.80;;;;;;5077659;28;20213;-70
2021/05/06 12:29:46;;;;;;;5.73;1.50;;;18.20;36.30;;;;;;5077094;28;20248;-70
2021/05/06 12:32:21;;;;;;;3.25;1.33;;;18.30;36.10;;;;;;5075900;28;20203;-70
2021/05/06 12:34:48;;;;;;;4.03;1.50;;;18.00;35.60;;;;;;5077391;28;20275;-71
2021/05/06 12:37:16;;;;;;;4.23;1.77;;;17.90;36.30;;;;;;5076224;28;20263;-71
2021/05/06 12:39:46;;;;;;;4.70;1.70;;;17.70;36.30;;;;;;5076134;28;20262;-72
2021/05/06 12:42:13;;;;;;;2.80;1.57;;;17.40;36.50;;;;;;5076014;28;20236;-70
2021/05/06 12:44:43;;;;;;;3.27;1.80;;;17.10;36.90;;;;;;5075434;28;20236;-72
2021/05/06 12:47:27;;;;;;;3.53;1.70;;;16.80;37.50;;;;;;5075811;28;20235;-71
2021/05/06 12:50:09;;;;;;;2.50;1.40;;;16.60;38.30;;;;;;5076149;28;20623;-71
2021/05/06 12:52:38;;;;;;;4.10;1.27;;;16.60;39.20;;;;;;5074841;28;20201;-72
2021/05/06 12:55:22;;;;;;;4.77;1.47;;;16.60;39.30;;;;;;5077265;28;20646;-72
2021/05/06 12:58:12;;;;;;;2.57;1.73;;;16.70;39.30;;;;;;5077755;28;20239;-71
2021/05/06 13:00:39;;;;;;;3.97;1.70;;;16.70;39.40;;;;;;5079632;28;20213;-74
2021/05/06 13:03:06;;;;;;;4.00;2.03;;;17.00;39.70;;;;;;5083913;28;20676;-69
2021/05/06 13:05:35;;;;;;;3.43;2.10;;;17.20;40.10;;;;;;5086006;28;20500;-70
2021/05/06 13:08:02;;;;;;;4.03;1.80;;;17.40;39.40;;;;;;5083208;28;20228;-68
2021/05/06 13:10:34;;;;;;;3.60;1.83;;;17.40;38.50;;;;;;5086726;28;20204;-69
2021/05/06 13:13:01;;;;;;;5.90;1.83;;;17.10;38.70;;;;;;5082768;28;20201;-69
2021/05/06 13:15:28;;;;;;;3.77;1.97;;;16.70;39.20;;;;;;5085099;28;20262;-71
2021/05/06 13:17:57;;;;;;;4.47;1.90;;;16.30;39.80;;;;;;5086676;28;20599;-71
2021/05/06 13:20:26;;;;;;;3.47;2.40;;;16.00;40.60;;;;;;5083532;28;20208;-70
2021/05/06 13:23:04;;;;;;;5.60;1.67;;;15.60;41.40;;;;;;5077499;28;20229;-71
2021/05/06 13:25:42;;;;;;;1.80;1.70;;;15.30;43.40;;;;;;5082273;28;20211;-72
2021/05/06 13:28:09;;;;;;;2.33;1.70;;;14.90;45.40;;;;;;5075388;28;20273;-71
2021/05/06 13:30:36;;;;;;;5.33;2.23;;;14.70;46.80;;;;;;5084666;28;20228;-71
2021/05/06 13:33:11;;;;;;;2.63;1.80;;;14.70;47.80;;;;;;5086453;28;20765;-71
2021/05/06 13:35:37;;;;;;;2.90;1.77;;;14.80;48.00;;;;;;5086394;28;20215;-71
2021/05/06 13:38:05;;;;;;;4.60;1.90;;;15.00;48.00;;;;;;5086036;28;20208;-72
2021/05/06 13:40:31;;;;;;;3.30;1.97;;;15.20;47.30;;;;;;5086940;28;20557;-71
2021/05/06 13:42:58;;;;;;;2.47;1.30;;;15.40;46.50;;;;;;5082153;28;20296;-70
2021/05/06 13:45:24;;;;;;;4.13;1.90;;;15.60;45.40;;;;;;5082569;28;20651;-71
2021/05/06 13:47:50;;;;;;;4.63;1.30;;;15.60;44.10;;;;;;5081795;28;20237;-71
2021/05/06 13:50:18;;;;;;;1.40;1.20;;;15.70;43.80;;;;;;5089001;28;20251;-71
2021/05/06 13:52:45;;;;;;;2.97;1.20;;;15.80;43.00;;;;;;5080583;28;20211;-71
2021/05/06 13:55:14;;;;;;;1.20;1.10;;;15.80;42.50;;;;;;5082884;28;20701;-71
2021/05/06 13:57:42;;;;;;;2.60;1.40;;;15.90;42.60;;;;;;5081574;28;20209;-71
2021/05/06 14:00:10;;;;;;;2.30;1.30;;;16.00;42.70;;;;;;5083769;28;20214;-71
2021/05/06 14:02:37;;;;;;;2.37;1.50;;;16.10;42.80;;;;;;5080924;28;20736;-71
2021/05/06 14:05:04;;;;;;;1.97;1.40;;;16.10;42.70;;;;;;5084949;28;20228;-71
2021/05/06 14:07:31;;;;;;;1.20;1.10;;;16.20;42.80;;;;;;5074253;28;20212;-70
2021/05/06 14:09:57;;;;;;;1.50;1.10;;;16.00;41.90;;;;;;5082749;28;20291;-70
2021/05/06 14:12:24;;;;;;;2.17;1.30;;;15.90;41.90;;;;;;5075636;28;20295;-71
2021/05/06 14:14:51;;;;;;;5.33;1.60;;;15.90;42.20;;;;;;5073906;28;20300;-72
2021/05/06 14:17:17;;;;;;;5.87;1.67;;;16.00;42.70;;;;;;5079060;28;20215;-72
2021/05/06 14:19:44;;;;;;;4.73;1.33;;;16.10;42.80;;;;;;5079719;28;20291;-72
2021/05/06 14:22:10;;;;;;;1.30;1.20;;;16.20;41.90;;;;;;5080052;28;20214;-71
2021/05/06 14:24:36;;;;;;;2.60;1.37;;;16.10;41.30;;;;;;5081568;28;20233;-71
2021/05/06 14:27:03;;;;;;;2.23;1.33;;;16.10;41.60;;;;;;5070094;28;20292;-71
2021/05/06 14:29:30;;;;;;;1.37;1.13;;;16.10;41.40;;;;;;5068488;28;20289;-72
2021/05/06 14:31:57;;;;;;;2.47;1.23;;;16.20;41.50;;;;;;5073801;28;20305;-71
2021/05/06 14:34:23;;;;;;;1.93;1.30;;;16.20;41.10;;;;;;5073766;28;20454;-71
2021/05/06 14:36:49;;;;;;;4.17;1.53;;;16.30;41.40;;;;;;5073677;28;20221;-72
2021/05/06 14:39:16;;;;;;;1.63;1.10;;;16.20;41.00;;;;;;5067766;28;20666;-73
2021/05/06 14:41:43;;;;;;;2.20;1.37;;;16.20;40.90;;;;;;5077816;28;20636;-72
2021/05/06 14:44:10;;;;;;;4.23;1.30;;;16.10;41.10;;;;;;5073912;28;20249;-73
2021/05/06 14:46:37;;;;;;;2.20;1.60;;;16.10;41.60;;;;;;5091421;28;20212;-72
2021/05/06 14:49:05;;;;;;;1.70;1.60;;;16.20;41.60;;;;;;5076205;28;20233;-71
2021/05/06 14:51:31;;;;;;;2.20;1.57;;;16.30;41.80;;;;;;5075561;28;20231;-72
2021/05/06 14:53:57;;;;;;;4.53;1.67;;;16.20;41.60;;;;;;5073306;28;20292;-71
2021/05/06 14:56:24;;;;;;;3.40;1.70;;;16.20;41.50;;;;;;5074372;28;20213;-72
2021/05/06 14:58:51;;;;;;;2.47;1.30;;;16.10;41.60;;;;;;5079378;28;20229;-72
2021/05/06 15:01:17;;;;;;;4.17;1.93;;;16.00;41.70;;;;;;5078874;28;20226;-72
2021/05/06 15:03:45;;;;;;;2.93;1.60;;;16.00;42.00;;;;;;5077633;28;20224;-72
2021/05/06 15:06:11;;;;;;;2.47;1.70;;;15.90;42.00;;;;;;5077393;28;20255;-73
2021/05/06 15:08:42;;;;;;;2.23;1.27;;;15.90;42.40;;;;;;5078038;28;20287;-73
2021/05/06 15:11:10;;;;;;;2.10;1.57;;;15.80;41.80;;;;;;5075181;28;20654;-72
2021/05/06 15:13:36;;;;;;;2.17;1.30;;;15.70;41.00;;;;;;5075158;28;20225;-73
2021/05/06 15:16:03;;;;;;;1.53;1.13;;;15.50;40.40;;;;;;5077440;28;20262;-72
2021/05/06 15:18:29;;;;;;;1.23;1.13;;;15.40;40.40;;;;;;5075224;28;20274;-71
2021/05/06 15:20:57;;;;;;;4.47;1.40;;;15.20;40.70;;;;;;5075718;28;20244;-72
2021/05/06 15:23:23;;;;;;;3.07;1.33;;;15.20;41.30;;;;;;5075661;28;20233;-71
2021/05/06 15:25:49;;;;;;;0.97;0.90;;;15.10;41.50;;;;;;5077819;28;20643;-71